createdAt,value
2019-03-13T00:00:05.846Z,5.96
2019-03-13T00:01:05.745Z,5.96
2019-03-13T00:02:05.773Z,5.96
2019-03-13T00:03:05.794Z,5.96
2019-03-13T00:04:05.821Z,5.98
2019-03-13T00:05:05.835Z,5.99
2019-03-13T00:06:05.857Z,5.91
2019-03-13T00:07:05.889Z,5.99
2019-03-13T00:08:05.913Z,5.98
2019-03-13T00:09:05.931Z,5.92
2019-03-13T00:10:05.957Z,5.98
2019-03-13T00:11:05.974Z,5.92
2019-03-13T00:12:05.995Z,5.96
2019-03-13T00:13:06.016Z,5.99
2019-03-13T00:14:06.038Z,5.88
2019-03-13T00:15:06.065Z,5.96
2019-03-13T00:16:06.095Z,5.87
2019-03-13T00:17:06.109Z,5.92
2019-03-13T00:18:06.142Z,5.88
2019-03-13T00:19:06.154Z,5.91
2019-03-13T00:20:06.182Z,5.88
2019-03-13T00:21:06.199Z,5.85
2019-03-13T00:22:06.228Z,5.85
2019-03-13T00:23:06.248Z,5.96
2019-03-13T00:24:06.316Z,5.99
2019-03-13T00:25:06.289Z,6.02
2019-03-13T00:26:06.310Z,6.00
2019-03-13T00:27:06.333Z,6.03
2019-03-13T00:28:06.356Z,6.03
2019-03-13T00:29:06.377Z,6.02
2019-03-13T00:30:06.403Z,6.07
2019-03-13T00:31:06.423Z,6.18
2019-03-13T00:32:06.447Z,6.17
2019-03-13T00:33:06.468Z,6.15
2019-03-13T00:34:06.491Z,6.09
2019-03-13T00:35:06.513Z,6.07
2019-03-13T00:36:06.539Z,6.25
2019-03-13T00:37:06.560Z,6.15
2019-03-13T00:38:06.583Z,6.09
2019-03-13T00:39:06.606Z,6.17
2019-03-13T00:40:06.629Z,6.24
2019-03-13T00:41:06.656Z,6.09
2019-03-13T00:42:06.711Z,6.20
2019-03-13T00:43:06.699Z,6.14
2019-03-13T00:44:06.721Z,6.17
2019-03-13T00:45:06.744Z,6.25
2019-03-13T00:46:06.766Z,6.21
2019-03-13T00:47:06.788Z,6.21
2019-03-13T00:48:06.811Z,6.21
2019-03-13T00:49:06.834Z,6.25
2019-03-13T00:50:06.855Z,6.15
2019-03-13T00:51:06.885Z,6.24
2019-03-13T00:52:06.942Z,6.24
2019-03-13T00:53:06.923Z,6.29
2019-03-13T00:54:06.950Z,6.34
2019-03-13T00:55:06.969Z,6.29
2019-03-13T00:56:06.992Z,6.28
2019-03-13T00:57:07.014Z,6.33
2019-03-13T00:58:07.038Z,6.33
2019-03-13T00:59:07.062Z,6.33
2019-03-13T01:00:07.081Z,6.31
2019-03-13T01:01:07.106Z,6.37
2019-03-13T01:02:07.129Z,6.31
2019-03-13T01:03:07.152Z,6.34
2019-03-13T01:04:07.183Z,6.39
2019-03-13T01:05:07.205Z,6.29
2019-03-13T01:06:07.216Z,6.31
2019-03-13T01:07:07.242Z,6.34
2019-03-13T01:08:07.269Z,6.36
2019-03-13T01:09:07.288Z,6.31
2019-03-13T01:10:07.309Z,6.40
2019-03-13T01:11:07.340Z,6.31
2019-03-13T01:12:07.357Z,6.34
2019-03-13T01:13:07.376Z,6.39
2019-03-13T01:14:07.408Z,6.33
2019-03-13T01:15:07.422Z,6.40
2019-03-13T01:16:07.453Z,6.43
2019-03-13T01:17:07.575Z,6.39
2019-03-13T01:18:07.490Z,6.39
2019-03-13T01:19:07.514Z,6.36
2019-03-13T01:20:07.540Z,6.36
2019-03-13T01:21:07.562Z,6.40
2019-03-13T01:22:07.593Z,6.43
2019-03-13T01:23:07.604Z,6.33
2019-03-13T01:24:07.629Z,6.36
2019-03-13T01:25:07.653Z,6.36
2019-03-13T01:26:07.674Z,6.24
2019-03-13T01:27:07.747Z,6.25
2019-03-13T01:28:07.729Z,6.31
2019-03-13T01:29:07.745Z,6.33
2019-03-13T01:30:07.767Z,6.28
2019-03-13T01:31:07.791Z,6.29
2019-03-13T01:32:07.898Z,6.29
2019-03-13T01:33:07.835Z,6.33
2019-03-13T01:34:07.862Z,6.33
2019-03-13T01:35:07.881Z,6.21
2019-03-13T01:36:07.902Z,6.31
2019-03-13T01:37:07.926Z,6.28
2019-03-13T01:38:07.949Z,6.34
2019-03-13T01:39:07.972Z,6.26
2019-03-13T01:40:07.992Z,6.29
2019-03-13T01:41:08.037Z,6.25
2019-03-13T01:42:08.038Z,6.29
2019-03-13T01:43:08.060Z,6.31
2019-03-13T01:44:08.086Z,6.31
2019-03-13T01:45:08.113Z,6.25
2019-03-13T01:46:08.158Z,6.24
2019-03-13T01:47:08.151Z,6.24
2019-03-13T01:48:08.178Z,6.21
2019-03-13T01:49:08.201Z,6.18
2019-03-13T01:50:08.219Z,6.20
2019-03-13T01:51:08.297Z,6.09
2019-03-13T01:52:08.303Z,6.24
2019-03-13T01:53:08.288Z,6.21
2019-03-13T01:54:08.313Z,6.21
2019-03-13T01:55:08.374Z,6.20
2019-03-13T01:56:08.364Z,6.18
2019-03-13T01:57:08.381Z,6.28
2019-03-13T01:58:08.403Z,6.21
2019-03-13T01:59:08.424Z,6.25
2019-03-13T02:00:08.471Z,6.20
2019-03-13T02:01:08.471Z,6.25
2019-03-13T02:02:08.491Z,6.28
2019-03-13T02:03:08.514Z,6.28
2019-03-13T02:04:08.543Z,6.31
2019-03-13T02:05:08.559Z,6.24
2019-03-13T02:06:08.585Z,6.25
2019-03-13T02:07:08.691Z,6.33
2019-03-13T02:08:08.635Z,6.28
2019-03-13T02:09:08.653Z,6.29
2019-03-13T02:10:08.676Z,6.34
2019-03-13T02:11:08.697Z,6.31
2019-03-13T02:12:08.721Z,6.31
2019-03-13T02:13:08.754Z,6.34
2019-03-13T02:14:08.764Z,6.26
2019-03-13T02:15:08.788Z,6.31
2019-03-13T02:16:08.812Z,6.40
2019-03-13T02:17:08.834Z,6.37
2019-03-13T02:18:08.855Z,6.39
2019-03-13T02:19:08.878Z,6.46
2019-03-13T02:20:08.901Z,6.37
2019-03-13T02:21:08.923Z,6.34
2019-03-13T02:22:08.945Z,6.39
2019-03-13T02:23:08.970Z,6.33
2019-03-13T02:24:08.993Z,6.40
2019-03-13T02:25:09.017Z,6.29
2019-03-13T02:26:09.045Z,6.39
2019-03-13T02:27:09.100Z,6.33
2019-03-13T02:28:09.084Z,6.36
2019-03-13T02:29:09.104Z,6.33
2019-03-13T02:30:09.141Z,6.39
2019-03-13T02:31:09.188Z,6.39
2019-03-13T02:32:09.178Z,6.26
2019-03-13T02:33:09.204Z,6.39
2019-03-13T02:34:09.219Z,6.29
2019-03-13T02:35:09.253Z,6.39
2019-03-13T02:36:09.284Z,6.40
2019-03-13T02:37:09.288Z,6.39
2019-03-13T02:38:09.313Z,6.40
2019-03-13T02:39:09.334Z,6.47
2019-03-13T02:40:09.385Z,6.49
2019-03-13T02:41:09.387Z,6.42
2019-03-13T02:42:09.405Z,6.51
2019-03-13T02:43:09.424Z,6.43
2019-03-13T02:44:09.452Z,6.40
2019-03-13T02:45:09.497Z,6.46
2019-03-13T02:46:09.512Z,6.46
2019-03-13T02:47:09.552Z,6.55
2019-03-13T02:48:09.550Z,6.54
2019-03-13T02:49:09.558Z,6.54
2019-03-13T02:50:09.585Z,6.54
2019-03-13T02:51:09.612Z,6.54
2019-03-13T02:52:09.627Z,6.51
2019-03-13T02:53:09.653Z,6.62
2019-03-13T02:54:09.677Z,6.60
2019-03-13T02:55:09.700Z,6.57
2019-03-13T02:56:09.735Z,6.61
2019-03-13T02:57:09.754Z,6.61
2019-03-13T02:58:09.771Z,6.78
2019-03-13T02:59:09.787Z,6.79
2019-03-13T03:00:09.810Z,6.73
2019-03-13T03:01:09.858Z,6.82
2019-03-13T03:02:09.857Z,6.78
2019-03-13T03:03:09.884Z,6.82
2019-03-13T03:04:09.911Z,6.85
2019-03-13T03:05:09.943Z,6.88
2019-03-13T03:06:10.012Z,6.82
2019-03-13T03:07:12.898Z,6.86
2019-03-13T03:08:09.994Z,6.86
2019-03-13T03:09:10.015Z,6.90
2019-03-13T03:10:10.051Z,6.88
2019-03-13T03:11:10.059Z,6.91
2019-03-13T03:12:10.095Z,6.95
2019-03-13T03:13:10.121Z,6.94
2019-03-13T03:14:10.137Z,6.86
2019-03-13T03:15:10.151Z,6.95
2019-03-13T03:16:10.183Z,6.85
2019-03-13T03:17:10.196Z,6.85
2019-03-13T03:18:10.241Z,6.85
2019-03-13T03:19:10.245Z,6.91
2019-03-13T03:20:10.307Z,6.97
2019-03-13T03:21:10.318Z,6.90
2019-03-13T03:22:10.316Z,6.98
2019-03-13T03:23:10.336Z,6.91
2019-03-13T03:24:10.359Z,6.97
2019-03-13T03:25:10.382Z,6.94
2019-03-13T03:26:10.401Z,6.90
2019-03-13T03:27:10.427Z,6.94
2019-03-13T03:28:10.452Z,6.94
2019-03-13T03:29:10.473Z,6.94
2019-03-13T03:30:10.518Z,6.90
2019-03-13T03:31:10.551Z,6.91
2019-03-13T03:32:10.586Z,6.95
2019-03-13T03:33:10.575Z,6.91
2019-03-13T03:34:10.588Z,6.94
2019-03-13T03:35:10.628Z,6.91
2019-03-13T03:36:10.632Z,6.88
2019-03-13T03:37:10.663Z,6.94
2019-03-13T03:38:10.678Z,6.93
2019-03-13T03:39:10.700Z,6.94
2019-03-13T03:40:10.729Z,6.94
2019-03-13T03:41:10.754Z,6.90
2019-03-13T03:42:10.779Z,6.94
2019-03-13T03:43:10.809Z,6.90
2019-03-13T03:44:10.825Z,6.95
2019-03-13T03:45:10.844Z,6.98
2019-03-13T03:46:10.870Z,6.97
2019-03-13T03:47:10.883Z,6.95
2019-03-13T03:48:10.929Z,6.98
2019-03-13T03:49:10.939Z,7.03
2019-03-13T03:50:10.953Z,6.97
2019-03-13T03:51:10.981Z,7.01
2019-03-13T03:52:10.997Z,7.09
2019-03-13T03:53:11.020Z,7.04
2019-03-13T03:54:11.064Z,6.98
2019-03-13T03:55:11.069Z,6.97
2019-03-13T03:56:11.103Z,7.03
2019-03-13T03:57:11.116Z,7.00
2019-03-13T03:58:11.148Z,7.00
2019-03-13T03:59:11.196Z,7.04
2019-03-13T04:00:11.188Z,7.04
2019-03-13T04:01:11.221Z,6.97
2019-03-13T04:02:11.231Z,7.03
2019-03-13T04:03:11.250Z,7.04
2019-03-13T04:04:11.282Z,7.08
2019-03-13T04:05:11.298Z,7.00
2019-03-13T04:06:11.322Z,7.09
2019-03-13T04:07:11.345Z,7.03
2019-03-13T04:08:11.368Z,7.09
2019-03-13T04:09:11.431Z,7.11
2019-03-13T04:10:11.435Z,7.13
2019-03-13T04:11:11.440Z,7.11
2019-03-13T04:12:11.462Z,7.12
2019-03-13T04:13:11.483Z,7.04
2019-03-13T04:14:11.507Z,7.16
2019-03-13T04:15:11.553Z,7.11
2019-03-13T04:16:11.586Z,7.18
2019-03-13T04:17:11.575Z,7.09
2019-03-13T04:18:11.617Z,7.15
2019-03-13T04:19:11.620Z,7.15
2019-03-13T04:20:11.649Z,7.13
2019-03-13T04:21:11.696Z,7.19
2019-03-13T04:22:11.698Z,7.19
2019-03-13T04:23:11.724Z,7.15
2019-03-13T04:24:11.741Z,7.18
2019-03-13T04:25:11.759Z,7.15
2019-03-13T04:26:12.879Z,7.15
2019-03-13T04:27:11.804Z,7.26
2019-03-13T04:28:11.832Z,7.19
2019-03-13T04:29:11.856Z,7.12
2019-03-13T04:30:11.925Z,7.09
2019-03-13T04:31:11.919Z,7.19
2019-03-13T04:32:11.928Z,7.12
2019-03-13T04:33:11.970Z,7.09
2019-03-13T04:34:11.968Z,7.19
2019-03-13T04:35:11.999Z,7.11
2019-03-13T04:36:12.023Z,7.08
2019-03-13T04:37:12.041Z,7.11
2019-03-13T04:38:12.106Z,7.13
2019-03-13T04:39:12.182Z,7.15
2019-03-13T04:40:12.103Z,7.08
2019-03-13T04:41:12.130Z,7.11
2019-03-13T04:42:12.151Z,7.18
2019-03-13T04:43:12.208Z,7.15
2019-03-13T04:44:12.197Z,7.09
2019-03-13T04:45:12.220Z,7.12
2019-03-13T04:46:12.244Z,7.21
2019-03-13T04:47:12.264Z,7.12
2019-03-13T04:48:12.309Z,7.13
2019-03-13T04:49:12.332Z,7.09
2019-03-13T04:50:12.333Z,7.21
2019-03-13T04:51:12.358Z,7.16
2019-03-13T04:52:12.382Z,7.15
2019-03-13T04:53:12.402Z,7.15
2019-03-13T04:54:12.447Z,7.22
2019-03-13T04:55:12.454Z,7.15
2019-03-13T04:56:12.477Z,7.15
2019-03-13T04:57:12.497Z,7.16
2019-03-13T04:58:12.527Z,7.16
2019-03-13T04:59:12.545Z,7.11
2019-03-13T05:00:12.587Z,7.21
2019-03-13T05:01:12.594Z,7.19
2019-03-13T05:02:12.617Z,7.18
2019-03-13T05:03:12.637Z,7.23
2019-03-13T05:04:12.658Z,7.21
2019-03-13T05:05:12.704Z,7.19
2019-03-13T05:06:12.710Z,7.22
2019-03-13T05:07:12.729Z,7.23
2019-03-13T05:08:12.758Z,7.18
2019-03-13T05:09:12.775Z,7.21
2019-03-13T05:10:12.907Z,7.16
2019-03-13T05:11:12.828Z,7.23
2019-03-13T05:12:12.846Z,7.22
2019-03-13T05:13:12.869Z,7.19
2019-03-13T05:14:12.893Z,7.23
2019-03-13T05:15:12.934Z,7.23
2019-03-13T05:16:12.938Z,7.18
2019-03-13T05:17:12.960Z,7.16
2019-03-13T05:18:12.983Z,7.22
2019-03-13T05:19:13.007Z,7.29
2019-03-13T05:20:13.903Z,7.22
2019-03-13T05:21:13.053Z,7.27
2019-03-13T05:22:13.089Z,7.27
2019-03-13T05:23:13.135Z,7.23
2019-03-13T05:24:13.129Z,7.29
2019-03-13T05:25:13.144Z,7.23
2019-03-13T05:26:13.169Z,7.27
2019-03-13T05:27:13.192Z,7.34
2019-03-13T05:28:13.212Z,7.34
2019-03-13T05:29:13.235Z,7.30
2019-03-13T05:30:13.261Z,7.27
2019-03-13T05:31:13.285Z,7.33
2019-03-13T05:32:13.312Z,7.29
2019-03-13T05:33:13.329Z,7.37
2019-03-13T05:34:13.354Z,7.29
2019-03-13T05:35:13.378Z,7.30
2019-03-13T05:36:16.485Z,7.29
2019-03-13T05:37:13.452Z,7.30
2019-03-13T05:38:13.452Z,7.26
2019-03-13T05:39:13.473Z,7.27
2019-03-13T05:40:13.494Z,7.29
2019-03-13T05:41:13.514Z,7.34
2019-03-13T05:42:13.559Z,7.30
2019-03-13T05:43:13.577Z,7.30
2019-03-13T05:44:13.590Z,7.31
2019-03-13T05:45:13.611Z,7.44
2019-03-13T05:46:13.633Z,7.45
2019-03-13T05:47:13.657Z,7.41
2019-03-13T05:48:13.702Z,7.41
2019-03-13T05:49:13.699Z,7.49
2019-03-13T05:50:13.724Z,7.48
2019-03-13T05:51:13.856Z,7.51
2019-03-13T05:52:13.779Z,7.48
2019-03-13T05:53:13.795Z,7.48
2019-03-13T05:54:13.818Z,7.48
2019-03-13T05:55:13.850Z,7.45
2019-03-13T05:56:13.867Z,7.52
2019-03-13T05:57:13.884Z,7.47
2019-03-13T05:58:13.915Z,7.48
2019-03-13T05:59:13.937Z,7.40
2019-03-13T06:00:13.956Z,7.48
2019-03-13T06:01:13.978Z,7.34
2019-03-13T06:02:14.004Z,7.47
2019-03-13T06:03:14.029Z,7.48
2019-03-13T06:04:14.049Z,7.51
2019-03-13T06:05:14.080Z,7.41
2019-03-13T06:06:14.104Z,7.49
2019-03-13T06:07:14.118Z,7.44
2019-03-13T06:08:14.142Z,7.47
2019-03-13T06:09:14.167Z,7.54
2019-03-13T06:10:14.188Z,7.34
2019-03-13T06:11:14.215Z,7.44
2019-03-13T06:12:14.236Z,7.49
2019-03-13T06:13:14.261Z,7.45
2019-03-13T06:14:14.285Z,7.48
2019-03-13T06:15:14.312Z,7.49
2019-03-13T06:16:14.331Z,7.48
2019-03-13T06:17:14.351Z,7.51
2019-03-13T06:18:14.374Z,7.58
2019-03-13T06:19:14.405Z,7.54
2019-03-13T06:20:14.422Z,7.52
2019-03-13T06:21:14.447Z,7.55
2019-03-13T06:22:14.474Z,7.55
2019-03-13T06:23:14.497Z,7.61
2019-03-13T06:24:14.515Z,7.52
2019-03-13T06:25:14.571Z,7.58
2019-03-13T06:26:14.596Z,7.59
2019-03-13T06:27:14.587Z,7.56
2019-03-13T06:28:14.629Z,7.49
2019-03-13T06:29:14.635Z,7.56
2019-03-13T06:30:14.661Z,7.54
2019-03-13T06:31:14.682Z,7.55
2019-03-13T06:32:14.701Z,7.58
2019-03-13T06:33:14.732Z,7.52
2019-03-13T06:34:14.748Z,7.52
2019-03-13T06:35:14.775Z,7.55
2019-03-13T06:36:14.795Z,7.55
2019-03-13T06:37:14.819Z,7.55
2019-03-13T06:38:14.847Z,7.71
2019-03-13T06:39:14.866Z,7.63
2019-03-13T06:40:14.889Z,7.59
2019-03-13T06:41:14.910Z,7.55
2019-03-13T06:42:15.009Z,7.55
2019-03-13T06:43:14.960Z,7.52
2019-03-13T06:44:14.981Z,7.49
2019-03-13T06:45:15.004Z,7.52
2019-03-13T06:46:15.029Z,7.58
2019-03-13T06:47:15.053Z,7.67
2019-03-13T06:48:15.075Z,7.56
2019-03-13T06:49:15.096Z,7.52
2019-03-13T06:50:15.120Z,7.54
2019-03-13T06:51:15.147Z,7.49
2019-03-13T06:52:15.170Z,7.55
2019-03-13T06:53:15.190Z,7.59
2019-03-13T06:54:15.214Z,7.47
2019-03-13T06:55:15.237Z,7.40
2019-03-13T06:56:15.261Z,7.31
2019-03-13T06:57:15.286Z,7.34
2019-03-13T06:58:15.308Z,7.27
2019-03-13T06:59:15.332Z,7.33
2019-03-13T07:00:15.354Z,7.36
2019-03-13T07:01:15.377Z,7.26
2019-03-13T07:02:15.402Z,7.29
2019-03-13T07:03:15.431Z,7.31
2019-03-13T07:04:15.448Z,7.27
2019-03-13T07:05:15.472Z,7.41
2019-03-13T07:06:15.503Z,7.49
2019-03-13T07:07:15.528Z,7.41
2019-03-13T07:08:15.542Z,7.49
2019-03-13T07:09:15.568Z,7.51
2019-03-13T07:10:15.592Z,7.48
2019-03-13T07:11:15.610Z,7.56
2019-03-13T07:12:15.640Z,7.59
2019-03-13T07:13:15.660Z,7.54
2019-03-13T07:14:15.698Z,7.52
2019-03-13T07:15:15.705Z,7.58
2019-03-13T07:16:15.725Z,7.49
2019-03-13T07:17:15.751Z,7.52
2019-03-13T07:18:15.774Z,7.52
2019-03-13T07:19:15.796Z,7.49
2019-03-13T07:20:15.819Z,7.41
2019-03-13T07:21:15.844Z,7.33
2019-03-13T07:22:15.865Z,7.22
2019-03-13T07:23:15.893Z,7.15
2019-03-13T07:24:15.919Z,7.08
2019-03-13T07:25:15.939Z,7.11
2019-03-13T07:26:15.961Z,7.13
2019-03-13T07:27:16.041Z,7.04
2019-03-13T07:28:16.008Z,7.11
2019-03-13T07:29:16.035Z,7.03
2019-03-13T07:30:16.052Z,7.08
2019-03-13T07:31:16.077Z,7.13
2019-03-13T07:32:16.103Z,7.11
2019-03-13T07:33:16.130Z,7.18
2019-03-13T07:34:16.147Z,7.21
2019-03-13T07:35:16.175Z,7.16
2019-03-13T07:36:16.198Z,7.22
2019-03-13T07:37:16.216Z,7.18
2019-03-13T07:38:16.492Z,7.27
2019-03-13T07:39:16.271Z,7.27
2019-03-13T07:40:16.287Z,7.34
2019-03-13T07:41:16.313Z,7.29
2019-03-13T07:42:16.356Z,7.34
2019-03-13T07:43:16.364Z,7.30
2019-03-13T07:44:16.380Z,7.31
2019-03-13T07:45:16.409Z,7.48
2019-03-13T07:46:16.425Z,7.49
2019-03-13T07:47:16.454Z,7.48
2019-03-13T07:48:16.472Z,7.44
2019-03-13T07:49:16.498Z,7.48
2019-03-13T07:50:16.529Z,7.52
2019-03-13T07:51:16.544Z,7.47
2019-03-13T07:52:16.567Z,7.52
2019-03-13T07:53:16.589Z,7.48
2019-03-13T07:54:16.614Z,7.51
2019-03-13T07:55:16.639Z,7.54
2019-03-13T07:56:16.662Z,7.54
2019-03-13T07:57:16.682Z,7.49
2019-03-13T07:58:16.705Z,7.59
2019-03-13T07:59:16.728Z,7.54
2019-03-13T08:00:16.753Z,7.58
2019-03-13T08:01:16.778Z,7.68
2019-03-13T08:02:16.805Z,7.63
2019-03-13T08:03:16.826Z,7.49
2019-03-13T08:04:16.860Z,7.56
2019-03-13T08:05:16.875Z,7.61
2019-03-13T08:06:16.915Z,7.54
2019-03-13T08:07:16.919Z,7.64
2019-03-13T08:08:16.948Z,7.68
2019-03-13T08:09:16.966Z,7.78
2019-03-13T08:10:16.990Z,7.88
2019-03-13T08:11:17.014Z,7.89
2019-03-13T08:12:17.037Z,7.86
2019-03-13T08:13:17.061Z,7.85
2019-03-13T08:14:17.087Z,7.78
2019-03-13T08:15:17.108Z,7.91
2019-03-13T08:16:17.130Z,7.91
2019-03-13T08:17:17.159Z,7.93
2019-03-13T08:18:17.177Z,8.03
2019-03-13T08:19:17.208Z,8.01
2019-03-13T08:20:17.225Z,7.99
2019-03-13T08:21:17.251Z,8.13
2019-03-13T08:22:17.272Z,8.17
2019-03-13T08:23:17.298Z,8.13
2019-03-13T08:24:17.325Z,8.22
2019-03-13T08:25:17.345Z,8.25
2019-03-13T08:26:17.368Z,8.26
2019-03-13T08:27:17.394Z,8.17
2019-03-13T08:28:17.432Z,8.11
2019-03-13T08:29:17.447Z,8.13
2019-03-13T08:30:20.167Z,8.03
2019-03-13T08:31:17.491Z,7.95
2019-03-13T08:32:17.511Z,8.01
2019-03-13T08:33:17.540Z,8.09
2019-03-13T08:34:17.561Z,7.99
2019-03-13T08:35:17.585Z,7.98
2019-03-13T08:36:17.612Z,7.99
2019-03-13T08:37:17.630Z,7.96
2019-03-13T08:38:17.661Z,8.01
2019-03-13T08:39:17.686Z,8.04
2019-03-13T08:40:17.754Z,8.13
2019-03-13T08:41:17.755Z,8.10
2019-03-13T08:42:17.750Z,8.01
2019-03-13T08:43:17.776Z,8.01
2019-03-13T08:44:17.801Z,7.98
2019-03-13T08:45:17.824Z,8.04
2019-03-13T08:46:17.887Z,8.13
2019-03-13T08:47:17.872Z,8.03
2019-03-13T08:48:17.896Z,7.99
2019-03-13T08:49:17.924Z,7.96
2019-03-13T08:50:17.948Z,8.01
2019-03-13T08:51:17.966Z,8.03
2019-03-13T08:52:17.994Z,7.98
2019-03-13T08:53:18.012Z,8.01
2019-03-13T08:54:18.037Z,7.96
2019-03-13T08:55:18.062Z,8.04
2019-03-13T08:56:18.086Z,7.99
2019-03-13T08:57:18.116Z,8.14
2019-03-13T08:58:18.130Z,8.16
2019-03-13T08:59:18.157Z,8.11
2019-03-13T09:00:18.201Z,8.14
2019-03-13T09:01:18.202Z,8.09
2019-03-13T09:02:18.228Z,8.01
2019-03-13T09:03:18.252Z,8.03
2019-03-13T09:04:18.276Z,8.04
2019-03-13T09:05:18.301Z,8.04
2019-03-13T09:06:18.323Z,7.96
2019-03-13T09:07:18.355Z,7.92
2019-03-13T09:08:18.369Z,7.92
2019-03-13T09:09:18.398Z,8.01
2019-03-13T09:10:18.431Z,7.93
2019-03-13T09:11:18.441Z,7.88
2019-03-13T09:12:18.467Z,7.85
2019-03-13T09:13:18.493Z,7.88
2019-03-13T09:14:18.519Z,7.95
2019-03-13T09:15:18.538Z,7.96
2019-03-13T09:16:19.888Z,7.92
2019-03-13T09:17:18.584Z,7.99
2019-03-13T09:18:18.606Z,7.93
2019-03-13T09:19:18.636Z,7.99
2019-03-13T09:20:18.654Z,8.01
2019-03-13T09:21:18.677Z,7.98
2019-03-13T09:22:18.701Z,7.96
2019-03-13T09:23:18.790Z,7.98
2019-03-13T09:24:18.749Z,7.96
2019-03-13T09:25:18.774Z,7.96
2019-03-13T09:26:18.805Z,7.98
2019-03-13T09:27:18.820Z,7.96
2019-03-13T09:28:18.850Z,7.95
2019-03-13T09:29:19.002Z,8.01
2019-03-13T09:30:18.891Z,7.99
2019-03-13T09:31:18.916Z,8.10
2019-03-13T09:32:18.998Z,8.14
2019-03-13T09:33:18.969Z,8.29
2019-03-13T09:34:18.988Z,8.17
2019-03-13T09:35:19.011Z,8.19
2019-03-13T09:36:19.033Z,8.17
2019-03-13T09:37:19.063Z,8.21
2019-03-13T09:38:19.205Z,8.19
2019-03-13T09:39:19.105Z,8.16
2019-03-13T09:40:19.134Z,8.17
2019-03-13T09:41:19.154Z,8.24
2019-03-13T09:42:19.178Z,8.24
2019-03-13T09:43:19.208Z,8.31
2019-03-13T09:44:19.226Z,8.29
2019-03-13T09:45:19.248Z,8.35
2019-03-13T09:46:19.271Z,8.31
2019-03-13T09:47:19.298Z,8.28
2019-03-13T09:48:19.337Z,8.26
2019-03-13T09:49:19.347Z,8.28
2019-03-13T09:50:19.369Z,8.24
2019-03-13T09:51:19.392Z,8.26
2019-03-13T09:52:19.417Z,8.22
2019-03-13T09:53:19.441Z,8.28
2019-03-13T09:54:19.463Z,8.24
2019-03-13T09:55:19.488Z,8.19
2019-03-13T09:56:19.513Z,8.25
2019-03-13T09:57:19.536Z,8.29
2019-03-13T09:58:19.575Z,8.32
2019-03-13T09:59:19.595Z,8.26
2019-03-13T10:00:19.607Z,8.26
2019-03-13T10:01:19.630Z,8.17
2019-03-13T10:02:19.654Z,8.14
2019-03-13T10:03:19.678Z,8.04
2019-03-13T10:04:19.702Z,8.01
2019-03-13T10:05:19.728Z,8.03
2019-03-13T10:06:22.423Z,7.95
2019-03-13T10:07:19.785Z,7.82
2019-03-13T10:08:19.802Z,7.88
2019-03-13T10:09:19.821Z,7.83
2019-03-13T10:10:19.847Z,7.91
2019-03-13T10:11:19.872Z,7.73
2019-03-13T10:12:19.896Z,7.74
2019-03-13T10:13:19.919Z,7.74
2019-03-13T10:14:19.948Z,7.68
2019-03-13T10:15:19.970Z,7.74
2019-03-13T10:16:19.996Z,7.67
2019-03-13T10:17:20.013Z,7.59
2019-03-13T10:18:20.043Z,7.64
2019-03-13T10:19:20.061Z,7.64
2019-03-13T10:20:20.088Z,7.67
2019-03-13T10:21:20.109Z,7.68
2019-03-13T10:22:20.134Z,7.61
2019-03-13T10:23:20.158Z,7.67
2019-03-13T10:24:20.182Z,7.67
2019-03-13T10:25:20.203Z,7.61
2019-03-13T10:26:20.229Z,7.63
2019-03-13T10:27:20.251Z,7.67
2019-03-13T10:28:20.277Z,7.64
2019-03-13T10:29:20.297Z,7.61
2019-03-13T10:30:20.325Z,7.63
2019-03-13T10:31:20.346Z,7.68
2019-03-13T10:32:20.382Z,7.77
2019-03-13T10:33:20.392Z,7.78
2019-03-13T10:34:20.416Z,7.80
2019-03-13T10:35:20.441Z,7.78
2019-03-13T10:36:20.465Z,7.88
2019-03-13T10:37:20.490Z,7.78
2019-03-13T10:38:20.522Z,7.80
2019-03-13T10:39:20.544Z,7.63
2019-03-13T10:40:20.566Z,7.71
2019-03-13T10:41:20.582Z,7.68
2019-03-13T10:42:20.607Z,7.61
2019-03-13T10:43:20.633Z,7.70
2019-03-13T10:44:20.669Z,7.63
2019-03-13T10:45:20.678Z,7.71
2019-03-13T10:46:20.724Z,7.64
2019-03-13T10:47:20.727Z,7.59
2019-03-13T10:48:20.752Z,7.56
2019-03-13T10:49:20.862Z,7.61
2019-03-13T10:50:20.796Z,7.68
2019-03-13T10:51:20.819Z,7.68
2019-03-13T10:52:20.846Z,7.78
2019-03-13T10:53:20.869Z,7.78
2019-03-13T10:54:20.895Z,7.82
2019-03-13T10:55:20.914Z,7.83
2019-03-13T10:56:20.942Z,7.83
2019-03-13T10:57:20.963Z,7.91
2019-03-13T10:58:20.987Z,7.86
2019-03-13T10:59:21.018Z,7.85
2019-03-13T11:00:21.032Z,7.88
2019-03-13T11:01:21.055Z,7.92
2019-03-13T11:02:21.079Z,7.96
2019-03-13T11:03:21.104Z,7.95
2019-03-13T11:04:21.127Z,7.82
2019-03-13T11:05:21.151Z,7.92
2019-03-13T11:06:21.176Z,7.89
2019-03-13T11:07:21.207Z,8.01
2019-03-13T11:08:21.224Z,8.01
2019-03-13T11:09:21.251Z,8.03
2019-03-13T11:10:21.277Z,7.95
2019-03-13T11:11:21.293Z,7.98
2019-03-13T11:12:21.319Z,7.95
2019-03-13T11:13:21.342Z,7.77
2019-03-13T11:14:21.366Z,7.92
2019-03-13T11:15:21.388Z,8.04
2019-03-13T11:16:21.414Z,8.03
2019-03-13T11:17:21.435Z,8.01
2019-03-13T11:18:21.461Z,8.04
2019-03-13T11:19:21.488Z,8.01
2019-03-13T11:20:21.514Z,8.09
2019-03-13T11:21:21.535Z,7.99
2019-03-13T11:22:21.556Z,7.98
2019-03-13T11:23:21.827Z,8.03
2019-03-13T11:24:21.603Z,7.99
2019-03-13T11:25:21.645Z,8.13
2019-03-13T11:26:21.650Z,8.07
2019-03-13T11:27:21.672Z,8.11
2019-03-13T11:28:21.696Z,8.07
2019-03-13T11:29:21.721Z,8.06
2019-03-13T11:30:21.746Z,8.09
2019-03-13T11:31:21.772Z,8.11
2019-03-13T11:32:21.803Z,8.01
2019-03-13T11:33:21.817Z,8.01
2019-03-13T11:34:21.839Z,8.14
2019-03-13T11:35:21.865Z,8.13
2019-03-13T11:36:21.895Z,8.16
2019-03-13T11:37:21.909Z,8.11
2019-03-13T11:38:21.934Z,8.13
2019-03-13T11:39:21.960Z,8.22
2019-03-13T11:40:21.982Z,8.21
2019-03-13T11:41:22.006Z,8.31
2019-03-13T11:42:22.031Z,8.36
2019-03-13T11:43:22.053Z,8.46
2019-03-13T11:44:22.086Z,8.47
2019-03-13T11:45:22.102Z,8.43
2019-03-13T11:46:22.126Z,8.43
2019-03-13T11:47:22.151Z,8.44
2019-03-13T11:48:22.174Z,8.52
2019-03-13T11:49:22.194Z,8.40
2019-03-13T11:50:22.230Z,8.50
2019-03-13T11:51:22.244Z,8.42
2019-03-13T11:52:22.271Z,8.46
2019-03-13T11:53:22.293Z,8.53
2019-03-13T11:54:22.320Z,8.53
2019-03-13T11:55:22.341Z,8.44
2019-03-13T11:56:22.366Z,8.49
2019-03-13T11:57:22.386Z,8.52
2019-03-13T11:58:22.411Z,8.53
2019-03-13T11:59:22.434Z,8.60
2019-03-13T12:00:22.459Z,8.67
2019-03-13T12:01:22.482Z,8.69
2019-03-13T12:02:22.514Z,8.67
2019-03-13T12:03:22.536Z,8.58
2019-03-13T12:04:22.556Z,8.68
2019-03-13T12:05:22.580Z,8.60
2019-03-13T12:06:22.604Z,8.64
2019-03-13T12:07:22.629Z,8.77
2019-03-13T12:08:22.653Z,8.69
2019-03-13T12:09:22.676Z,8.61
2019-03-13T12:10:22.697Z,8.64
2019-03-13T12:11:22.732Z,8.53
2019-03-13T12:12:22.751Z,8.44
2019-03-13T12:13:22.769Z,8.44
2019-03-13T12:14:22.796Z,8.44
2019-03-13T12:15:22.818Z,8.42
2019-03-13T12:16:22.843Z,8.31
2019-03-13T12:17:22.873Z,8.26
2019-03-13T12:18:22.895Z,8.25
2019-03-13T12:19:22.918Z,8.26
2019-03-13T12:20:22.940Z,8.11
2019-03-13T12:21:22.968Z,8.14
2019-03-13T12:22:22.988Z,8.14
2019-03-13T12:23:23.013Z,8.14
2019-03-13T12:24:23.052Z,8.11
2019-03-13T12:25:23.059Z,8.01
2019-03-13T12:26:23.086Z,7.99
2019-03-13T12:27:23.108Z,8.01
2019-03-13T12:28:23.138Z,8.06
2019-03-13T12:29:23.155Z,8.13
2019-03-13T12:30:23.176Z,8.17
2019-03-13T12:31:23.200Z,8.17
2019-03-13T12:32:23.227Z,8.13
2019-03-13T12:33:23.252Z,8.09
2019-03-13T12:34:23.272Z,7.99
2019-03-13T12:35:23.295Z,8.03
2019-03-13T12:36:23.327Z,7.99
2019-03-13T12:37:23.343Z,7.93
2019-03-13T12:38:23.369Z,7.92
2019-03-13T12:39:23.395Z,7.86
2019-03-13T12:40:23.415Z,7.74
2019-03-13T12:41:23.438Z,7.70
2019-03-13T12:42:23.462Z,7.68
2019-03-13T12:43:23.486Z,7.67
2019-03-13T12:44:23.517Z,7.61
2019-03-13T12:45:23.539Z,7.67
2019-03-13T12:46:23.557Z,7.67
2019-03-13T12:47:23.584Z,7.70
2019-03-13T12:48:23.605Z,7.58
2019-03-13T12:49:23.630Z,7.56
2019-03-13T12:50:23.655Z,7.64
2019-03-13T12:51:23.675Z,7.55
2019-03-13T12:52:23.702Z,7.55
2019-03-13T12:53:23.726Z,7.54
2019-03-13T12:54:23.751Z,7.55
2019-03-13T12:55:23.774Z,7.48
2019-03-13T12:56:23.804Z,7.58
2019-03-13T12:57:23.816Z,7.56
2019-03-13T12:58:23.848Z,7.59
2019-03-13T12:59:23.867Z,7.48
2019-03-13T13:00:23.896Z,7.52
2019-03-13T13:01:23.919Z,7.49
2019-03-13T13:02:23.945Z,7.47
2019-03-13T13:03:23.957Z,7.45
2019-03-13T13:04:23.984Z,7.48
2019-03-13T13:05:24.005Z,7.39
2019-03-13T13:06:24.031Z,7.47
2019-03-13T13:07:24.061Z,7.31
2019-03-13T13:08:24.076Z,7.31
2019-03-13T13:09:25.566Z,7.27
2019-03-13T13:10:24.124Z,7.30
2019-03-13T13:11:24.154Z,7.30
2019-03-13T13:12:24.170Z,7.34
2019-03-13T13:13:24.192Z,7.29
2019-03-13T13:14:24.224Z,7.29
2019-03-13T13:15:24.241Z,7.29
2019-03-13T13:16:24.265Z,7.29
2019-03-13T13:17:24.287Z,7.26
2019-03-13T13:18:24.315Z,7.22